Aeroporto :







RITROVATECI SU...

 
LOGIN :

Iscrizione | Disclaimer

   EN    FR    IT 

 









Sommario :    VFR   VFR Marginale   IFR   IFR Intensivo   IFR Molto Intensivo
Visibilità : 
Base nubi : 
>= 8 km
>= 3000ft
5 / 8 km
1000 / 3000 ft
1500m / 5 km
500 / 1000 ft
800 / 1500m
200 / 500 ft
< 800m
< 200 ft
Simboli :   Temporali  Nebbia  Neve Forte  Precipitazioni Forti  Vento > 20 kt






- Altitudine del aeroporto : 377 ft
- Codice IATA : YPS


CYPD - Port Hawkesbury

ULTIMO METAR :
  • 171400Z AUTO 34005KT 290V020 9SM OVC030 01/M05 A3041 RMK PRESRR SLP307

METARs OBSOLETI :
  • 171300Z AUTO 32007KT 9SM OVC032 00/M05 A3038 RMK SLP297
  • 171223Z AUTO 31006G15KT 280V350 9SM OVC030 M00/M04 A3037 RMK SLP293
  • 171212Z AUTO 31006KT 280V360 9SM -SN SCT027 OVC033 M01/M04 A3037 RMK SLP292
  • 171208Z AUTO 31008KT 290V350 9SM SCT027 OVC033 M01/M04 A3037 RMK SLP291

TAF N/A



MetMap, La meteo Aeronautica in un colpo d'occhio ! - Copyright ORBIFLY Dicembre 2007 - Disclaimer

ORBIFLY MET'MAP TEAM :

Programmazione e sviluppo : Alexandra Zaïnal
Concezione e sviluppo : Baudouin d'Aumeries
Co-Programmazione e sviluppo : Marc-Olivier Méhu
Supporto tecnico e logistico : Manuel Goepfert
Aiuto per la traduzione : Arnaldo La Scala

Contatto : metmap@orbifly.com




FONTI E CREDITI :

   NOAA